« Back
NWS Peachtree City, Ga » Text Product » AHN Terminal Aerodrome Forecast


Printer-friendly Version
Current Version              Previous Versions:   1  2  3  4  5  6  7  8  9  

Terminal Aerodrome Forecast

559
FTUS42 KFFC 071127
TAFAHN
TAF
KAHN 071127Z 0712/0812 30003KT P6SM FEW200
     FM071600 27006KT P6SM FEW050
     FM080200 26005KT P6SM FEW150
     FM080900 28002KT P6SM SKC=

USA.gov is the U.S. government's official web portal to all federal, state and local government web resources and services.